Time;durP1;ratioP1;P1;durP2;ratioP2;P2;SDS_P1;SDS_P2;PMS_P1;PMS_P2;Temp;Humidity;BMP_temperature;BMP_pressure;BME280_temperature;BME280_humidity;BME280_pressure;Samples;Min_cycle;Max_cycle;Signal;HPM_P1;HPM_P2
2023/03/07 00:00:54;;;;;;;21.00;12.30;;;3.90;99.90;;;;;;7337819;32;20135;-55
2023/03/07 00:04:56;;;;;;;17.67;11.27;;;3.90;99.90;;;;;;7337067;32;20265;-55
2023/03/07 00:09:00;;;;;;;18.98;11.75;;;3.90;99.90;;;;;;7331673;32;20579;-56
2023/03/07 00:13:02;;;;;;;16.37;9.13;;;3.90;99.90;;;;;;7340426;32;20263;-55
2023/03/07 00:17:04;;;;;;;18.20;9.95;;;4.00;99.90;;;;;;7336693;32;20119;-55
2023/03/07 00:21:08;;;;;;;18.48;10.93;;;4.00;99.90;;;;;;7332042;32;20676;-55
2023/03/07 00:25:10;;;;;;;17.23;10.13;;;4.00;99.90;;;;;;7345398;32;20607;-55
2023/03/07 00:29:12;;;;;;;15.75;10.60;;;4.00;99.90;;;;;;7338679;32;20179;-55
2023/03/07 00:33:13;;;;;;;16.98;11.05;;;3.90;99.90;;;;;;7328736;32;20183;-56
2023/03/07 00:37:15;;;;;;;15.32;9.65;;;3.90;99.90;;;;;;7337045;32;20111;-56
2023/03/07 00:41:25;;;;;;;14.93;9.27;;;4.00;99.90;;;;;;7332481;32;20134;-56
2023/03/07 00:45:27;;;;;;;13.93;8.82;;;4.00;99.90;;;;;;7341241;32;20297;-55
2023/03/07 00:49:29;;;;;;;14.27;9.40;;;4.00;99.90;;;;;;7339341;32;20176;-55
2023/03/07 00:53:31;;;;;;;15.23;10.15;;;4.00;99.90;;;;;;7335711;32;20534;-55
2023/03/07 00:57:32;;;;;;;13.35;9.30;;;4.00;99.90;;;;;;7341699;32;20111;-55
2023/03/07 01:01:35;;;;;;;16.27;10.00;;;4.00;99.90;;;;;;7336709;32;20130;-55
2023/03/07 01:05:40;;;;;;;15.90;9.93;;;4.00;99.90;;;;;;7339253;32;20152;-55
2023/03/07 01:09:42;;;;;;;14.48;9.25;;;4.00;99.90;;;;;;7333838;32;20271;-55
2023/03/07 01:13:44;;;;;;;14.30;9.65;;;4.00;99.90;;;;;;7340445;32;20130;-55
2023/03/07 01:17:45;;;;;;;15.52;9.63;;;4.00;99.90;;;;;;7333719;32;20290;-55
2023/03/07 01:21:47;;;;;;;13.35;9.30;;;4.00;99.90;;;;;;7334165;32;20318;-55
2023/03/07 01:25:49;;;;;;;15.98;9.27;;;4.00;99.90;;;;;;7337353;32;20123;-56
2023/03/07 01:29:50;;;;;;;15.25;9.73;;;4.00;99.90;;;;;;7340050;32;20294;-55
2023/03/07 01:33:53;;;;;;;12.25;8.73;;;4.00;99.90;;;;;;7336106;32;20579;-56
2023/03/07 01:37:55;;;;;;;11.77;8.73;;;4.10;99.90;;;;;;7343940;32;20156;-56
2023/03/07 01:41:57;;;;;;;12.40;8.20;;;4.00;99.90;;;;;;7336798;32;20254;-56
2023/03/07 01:46:17;;;;;;;10.95;7.93;;;4.10;99.90;;;;;;7331552;32;20237;-55
2023/03/07 01:50:19;;;;;;;10.40;6.75;;;4.10;99.90;;;;;;7333878;32;20726;-55
2023/03/07 01:54:23;;;;;;;11.70;8.15;;;4.10;99.90;;;;;;7334944;32;20169;-56
2023/03/07 01:58:25;;;;;;;9.00;6.82;;;4.10;99.90;;;;;;7337419;32;20107;-55
2023/03/07 02:02:28;;;;;;;9.30;6.53;;;4.10;99.90;;;;;;7329143;32;20220;-55
2023/03/07 02:06:34;;;;;;;7.50;5.75;;;4.10;99.90;;;;;;7333110;32;20123;-56
2023/03/07 02:10:37;;;;;;;8.00;5.82;;;4.10;99.90;;;;;;7336199;32;20264;-55
2023/03/07 02:14:42;;;;;;;7.10;4.97;;;4.10;99.90;;;;;;7338317;32;20310;-55
2023/03/07 02:18:47;;;;;;;8.90;5.15;;;4.10;99.90;;;;;;7337451;32;20454;-56
2023/03/07 02:22:50;;;;;;;6.85;4.85;;;4.10;99.90;;;;;;7337480;32;20141;-56
2023/03/07 02:26:52;;;;;;;6.00;4.50;;;4.10;99.90;;;;;;7336916;32;20107;-55
2023/03/07 02:30:55;;;;;;;6.05;4.80;;;4.10;99.90;;;;;;7339358;32;20707;-56
2023/03/07 02:34:57;;;;;;;5.30;3.60;;;4.10;99.90;;;;;;7332515;32;20139;-55
2023/03/07 02:39:05;;;;;;;8.30;4.15;;;4.10;99.90;;;;;;7333633;32;20115;-55
2023/03/07 02:43:08;;;;;;;5.47;3.60;;;4.00;99.90;;;;;;7333347;32;20551;-56
2023/03/07 02:47:10;;;;;;;5.45;3.80;;;4.10;99.90;;;;;;7335406;32;20186;-55
2023/03/07 02:51:12;;;;;;;5.22;3.50;;;4.10;99.90;;;;;;7339528;32;20206;-55
2023/03/07 02:55:15;;;;;;;5.80;3.80;;;4.00;99.90;;;;;;7330211;32;20127;-56
2023/03/07 02:59:16;;;;;;;4.80;3.45;;;4.00;99.90;;;;;;7342059;32;20320;-56
2023/03/07 03:03:18;;;;;;;5.32;3.25;;;4.00;99.90;;;;;;7340488;32;20145;-55
2023/03/07 03:07:20;;;;;;;4.78;3.25;;;4.10;99.90;;;;;;7341187;32;20431;-54
2023/03/07 03:11:21;;;;;;;4.97;3.25;;;4.00;99.90;;;;;;7334358;32;20133;-55
2023/03/07 03:15:23;;;;;;;4.65;3.58;;;4.00;99.90;;;;;;7337805;32;20333;-54
2023/03/07 03:19:25;;;;;;;5.68;3.80;;;4.10;99.90;;;;;;7343205;32;20233;-55
2023/03/07 03:23:27;;;;;;;7.32;4.12;;;4.10;99.90;;;;;;7338102;32;20208;-55
2023/03/07 03:27:31;;;;;;;6.37;4.28;;;4.00;99.90;;;;;;7339510;32;20181;-54
2023/03/07 03:31:34;;;;;;;6.45;4.22;;;4.00;99.90;;;;;;7336923;32;20172;-55
2023/03/07 03:35:38;;;;;;;7.72;4.28;;;4.00;99.90;;;;;;7337479;32;20115;-55
2023/03/07 03:39:40;;;;;;;5.35;3.80;;;4.10;99.90;;;;;;7334491;32;20135;-54
2023/03/07 03:43:42;;;;;;;7.07;4.50;;;4.10;99.90;;;;;;7338766;32;20163;-55
2023/03/07 03:47:43;;;;;;;8.85;5.85;;;4.10;99.90;;;;;;7339566;32;20615;-54
2023/03/07 03:51:45;;;;;;;6.22;4.50;;;4.10;99.90;;;;;;7344841;32;20218;-55
2023/03/07 03:55:47;;;;;;;6.87;5.10;;;4.10;99.90;;;;;;7339125;32;20637;-54
2023/03/07 03:59:50;;;;;;;8.25;5.85;;;4.10;99.90;;;;;;7333355;32;20106;-55
2023/03/07 04:03:53;;;;;;;9.98;6.82;;;4.10;99.90;;;;;;7334793;32;20106;-55
2023/03/07 04:07:55;;;;;;;10.25;6.90;;;4.10;99.90;;;;;;7337522;32;20160;-55
2023/03/07 04:11:57;;;;;;;14.68;8.27;;;4.10;99.90;;;;;;7332583;32;20198;-55
2023/03/07 04:15:58;;;;;;;13.65;9.00;;;4.10;99.90;;;;;;7334991;32;20758;-54
2023/03/07 04:20:00;;;;;;;13.13;9.30;;;4.10;99.90;;;;;;7334515;32;20664;-55
2023/03/07 04:24:02;;;;;;;12.30;9.32;;;4.10;99.90;;;;;;7331871;32;20127;-54
2023/03/07 04:28:04;;;;;;;13.95;9.27;;;4.10;99.90;;;;;;7333813;32;20524;-55
2023/03/07 04:32:05;;;;;;;13.60;10.13;;;4.10;99.90;;;;;;7335530;32;20096;-55
2023/03/07 04:36:08;;;;;;;15.55;9.52;;;4.10;99.90;;;;;;7336969;32;20115;-54
2023/03/07 04:40:10;;;;;;;15.40;9.73;;;4.00;99.90;;;;;;7342368;32;20534;-54
2023/03/07 04:44:14;;;;;;;14.20;9.45;;;4.10;99.90;;;;;;7337954;32;20160;-54
2023/03/07 04:48:15;;;;;;;12.37;9.20;;;4.00;99.90;;;;;;7333555;32;20128;-54
2023/03/07 04:52:17;;;;;;;13.93;9.90;;;4.00;99.90;;;;;;7332285;32;20202;-55
2023/03/07 04:56:19;;;;;;;13.75;9.40;;;3.90;99.90;;;;;;7339570;32;20264;-54
2023/03/07 05:00:21;;;;;;;14.45;9.50;;;3.90;99.90;;;;;;7334225;32;20689;-54
2023/03/07 05:04:22;;;;;;;16.37;9.93;;;3.80;99.90;;;;;;7339096;32;20183;-54
2023/03/07 05:08:24;;;;;;;16.77;9.52;;;3.90;99.90;;;;;;7332447;32;20107;-56
2023/03/07 05:12:26;;;;;;;16.55;9.48;;;3.90;99.90;;;;;;7334034;32;20202;-55
2023/03/07 05:16:28;;;;;;;15.13;9.82;;;3.90;99.90;;;;;;7334527;32;20194;-54
2023/03/07 05:20:29;;;;;;;14.98;9.90;;;3.90;99.90;;;;;;7338761;32;20115;-55
2023/03/07 05:24:31;;;;;;;14.52;10.55;;;3.90;99.90;;;;;;7335795;32;20107;-54
2023/03/07 05:28:33;;;;;;;15.18;10.52;;;3.90;99.90;;;;;;7334968;32;20529;-54
2023/03/07 05:32:35;;;;;;;12.45;8.82;;;3.90;99.90;;;;;;7338668;32;20115;-55
2023/03/07 05:36:36;;;;;;;13.95;9.70;;;3.90;99.90;;;;;;7335268;32;20188;-55
2023/03/07 05:40:39;;;;;;;15.10;9.70;;;3.90;99.90;;;;;;7331859;32;20231;-55
2023/03/07 05:44:41;;;;;;;14.52;9.55;;;3.90;99.90;;;;;;7333894;32;20115;-54
2023/03/07 05:48:43;;;;;;;16.00;10.75;;;3.90;99.90;;;;;;7340858;32;20130;-55
2023/03/07 05:52:45;;;;;;;14.80;10.25;;;3.90;99.90;;;;;;7334779;32;20111;-56
2023/03/07 05:56:46;;;;;;;16.02;10.45;;;4.00;99.90;;;;;;7336192;32;20170;-55
2023/03/07 06:00:48;;;;;;;16.25;9.32;;;3.90;99.90;;;;;;7334391;32;20214;-54
2023/03/07 06:04:50;;;;;;;15.88;10.80;;;3.90;99.90;;;;;;7337530;32;20561;-55
2023/03/07 06:08:51;;;;;;;16.35;9.70;;;3.90;99.90;;;;;;7338180;32;20111;-56
2023/03/07 06:12:54;;;;;;;14.35;10.18;;;4.00;99.90;;;;;;7333470;32;20178;-56
2023/03/07 06:16:56;;;;;;;14.13;10.57;;;3.90;99.90;;;;;;7332486;32;20230;-56
2023/03/07 06:21:00;;;;;;;13.18;9.75;;;3.90;99.90;;;;;;7333275;32;20687;-56
2023/03/07 06:25:03;;;;;;;15.55;10.73;;;4.00;99.90;;;;;;7336002;32;20143;-57
2023/03/07 06:29:05;;;;;;;14.95;10.75;;;4.00;99.90;;;;;;7337047;32;20110;-57
2023/03/07 06:33:06;;;;;;;16.27;11.23;;;4.00;99.90;;;;;;7339240;32;20115;-57
2023/03/07 06:37:08;;;;;;;17.85;11.43;;;4.00;99.90;;;;;;7336830;32;20283;-56
2023/03/07 06:41:10;;;;;;;19.83;11.27;;;4.10;99.90;;;;;;7336271;32;20337;-56
2023/03/07 06:45:12;;;;;;;17.20;11.95;;;4.10;99.90;;;;;;7331926;32;20133;-55
2023/03/07 06:49:13;;;;;;;15.10;10.85;;;4.10;99.90;;;;;;7335320;32;20127;-56
2023/03/07 06:53:15;;;;;;;19.00;12.07;;;4.10;99.90;;;;;;7325987;32;20182;-56
2023/03/07 06:57:17;;;;;;;16.55;10.93;;;4.10;99.90;;;;;;7334353;32;20194;-55
2023/03/07 07:01:21;;;;;;;16.08;11.05;;;4.10;99.90;;;;;;7333978;32;20135;-56
2023/03/07 07:05:23;;;;;;;18.00;11.23;;;4.10;99.90;;;;;;7332084;32;20758;-55
2023/03/07 07:09:25;;;;;;;17.80;11.05;;;4.20;99.90;;;;;;7332672;32;20107;-55
2023/03/07 07:13:26;;;;;;;17.23;10.85;;;4.20;99.90;;;;;;7340102;32;20266;-55
2023/03/07 07:17:28;;;;;;;17.75;11.73;;;4.20;99.90;;;;;;7341958;32;20219;-56
2023/03/07 07:21:30;;;;;;;17.48;10.93;;;4.10;99.90;;;;;;7340220;32;20317;-56
2023/03/07 07:25:33;;;;;;;18.92;11.23;;;4.20;99.90;;;;;;7336487;32;20573;-55
2023/03/07 07:29:34;;;;;;;16.87;11.18;;;4.30;99.90;;;;;;7332416;32;20616;-55
2023/03/07 07:33:36;;;;;;;20.88;11.38;;;4.30;99.90;;;;;;7334097;32;20106;-56
2023/03/07 07:37:39;;;;;;;17.12;10.35;;;4.30;99.90;;;;;;7330461;32;20276;-56
2023/03/07 07:41:40;;;;;;;18.40;11.68;;;4.30;99.90;;;;;;7338408;32;20191;-55
2023/03/07 07:45:42;;;;;;;17.17;10.95;;;4.30;99.90;;;;;;7337673;32;20178;-55
2023/03/07 07:49:44;;;;;;;17.15;10.57;;;4.30;99.90;;;;;;7333376;32;20519;-56
2023/03/07 07:53:46;;;;;;;14.95;10.57;;;4.30;99.90;;;;;;7331714;32;20593;-56
2023/03/07 07:57:47;;;;;;;16.40;11.10;;;4.30;99.90;;;;;;7334620;32;20111;-55
2023/03/07 08:01:49;;;;;;;20.70;10.38;;;4.30;99.90;;;;;;7337078;32;20850;-55
2023/03/07 08:05:51;;;;;;;17.92;10.23;;;4.30;99.90;;;;;;7337448;32;20692;-55
2023/03/07 08:09:52;;;;;;;16.55;10.35;;;4.30;99.90;;;;;;7338192;32;20219;-55
2023/03/07 08:13:54;;;;;;;15.13;9.98;;;4.30;99.90;;;;;;7334882;32;20099;-55
2023/03/07 08:17:57;;;;;;;14.70;10.02;;;4.40;99.90;;;;;;7333505;32;20110;-56
2023/03/07 08:22:00;;;;;;;15.18;9.98;;;4.30;99.90;;;;;;7343615;32;20507;-55
2023/03/07 08:26:08;;;;;;;15.60;9.73;;;4.30;99.90;;;;;;7338061;32;20103;-55
2023/03/07 08:30:11;;;;;;;16.50;8.98;;;4.30;99.90;;;;;;7338050;32;20143;-55
2023/03/07 08:34:13;;;;;;;15.68;9.35;;;4.30;99.90;;;;;;7334670;32;20230;-55
2023/03/07 08:38:15;;;;;;;13.77;9.45;;;4.20;99.90;;;;;;7336474;32;20568;-56
2023/03/07 08:42:16;;;;;;;13.62;8.38;;;4.30;99.90;;;;;;7331104;32;20672;-56
2023/03/07 08:46:19;;;;;;;17.27;10.02;;;4.30;99.90;;;;;;7338285;32;20507;-55
2023/03/07 08:50:22;;;;;;;14.55;9.15;;;4.30;99.90;;;;;;7331209;32;20245;-56
2023/03/07 08:54:24;;;;;;;14.13;8.48;;;4.20;99.90;;;;;;7337722;32;20663;-56
2023/03/07 08:58:25;;;;;;;15.52;8.65;;;4.30;99.90;;;;;;7340230;32;20107;-56
2023/03/07 09:02:27;;;;;;;13.68;9.23;;;4.30;99.90;;;;;;7337484;32;20574;-56
2023/03/07 09:06:29;;;;;;;12.27;7.62;;;4.30;99.90;;;;;;7339712;32;20198;-56
2023/03/07 09:10:31;;;;;;;13.40;8.68;;;4.30;99.90;;;;;;7340725;32;20265;-55
2023/03/07 09:14:32;;;;;;;13.32;8.20;;;4.30;99.90;;;;;;7341625;32;20208;-56
2023/03/07 09:18:35;;;;;;;15.05;8.63;;;4.40;99.90;;;;;;7333499;32;20150;-56
2023/03/07 09:22:37;;;;;;;12.35;8.68;;;4.40;99.90;;;;;;7332730;32;20138;-56
2023/03/07 09:26:38;;;;;;;12.55;7.90;;;4.40;99.90;;;;;;7332893;32;20624;-56
2023/03/07 09:30:40;;;;;;;14.07;8.48;;;4.40;99.90;;;;;;7333396;32;20190;-56
2023/03/07 09:34:42;;;;;;;11.50;4.60;;;4.40;99.90;;;;;;7337283;32;20116;-55
2023/03/07 09:38:44;;;;;;;5.45;3.35;;;4.20;99.90;;;;;;7336714;32;20533;-56
2023/03/07 09:43:14;;;;;;;4.28;3.08;;;4.00;99.90;;;;;;7335474;32;20114;-57
2023/03/07 09:47:54;;;;;;;3.92;2.50;;;4.00;99.90;;;;;;7330527;32;20250;-57
2023/03/07 09:51:59;;;;;;;3.80;2.10;;;4.00;99.90;;;;;;7335966;32;20107;-56
2023/03/07 09:56:06;;;;;;;4.68;2.87;;;3.90;99.90;;;;;;7338221;32;20706;-55
2023/03/07 10:00:30;;;;;;;4.22;2.42;;;3.80;99.90;;;;;;7331910;32;20128;-55
2023/03/07 10:04:48;;;;;;;4.87;2.83;;;3.80;99.90;;;;;;7336323;32;20334;-55
2023/03/07 10:08:51;;;;;;;8.10;5.43;;;3.80;99.90;;;;;;7337777;32;20153;-55
2023/03/07 10:13:31;;;;;;;9.77;7.72;;;3.60;99.90;;;;;;7333794;32;20139;-55
2023/03/07 10:18:01;;;;;;;8.18;6.25;;;3.50;99.90;;;;;;7327623;32;20129;-56
2023/03/07 10:22:20;;;;;;;5.53;3.90;;;3.50;99.90;;;;;;7336756;32;20126;-56
2023/03/07 10:26:33;;;;;;;4.62;3.42;;;3.50;99.90;;;;;;7328503;32;20521;-55
2023/03/07 10:30:34;;;;;;;4.70;3.42;;;3.40;99.90;;;;;;7333998;32;20522;-56
2023/03/07 10:34:37;;;;;;;6.95;4.85;;;3.40;99.90;;;;;;7333794;32;20107;-56
2023/03/07 10:38:48;;;;;;;9.43;6.93;;;3.30;99.90;;;;;;7339141;32;20800;-57
2023/03/07 10:42:52;;;;;;;13.75;10.95;;;3.30;99.90;;;;;;7335235;32;20174;-56
2023/03/07 10:46:57;;;;;;;13.90;10.43;;;3.30;99.90;;;;;;7329729;32;20209;-56
2023/03/07 10:51:38;;;;;;;10.55;8.18;;;3.20;99.90;;;;;;7334805;32;20544;-53
2023/03/07 10:55:42;;;;;;;8.23;6.40;;;3.20;99.90;;;;;;7333074;32;20218;-55
2023/03/07 10:59:47;;;;;;;4.18;3.20;;;3.10;99.90;;;;;;7326750;32;20220;-55
2023/03/07 11:03:51;;;;;;;4.10;3.25;;;3.20;99.90;;;;;;7335578;32;20532;-55
2023/03/07 11:07:58;;;;;;;6.50;3.22;;;3.00;99.90;;;;;;7330555;32;20222;-56
2023/03/07 11:12:08;;;;;;;4.47;3.67;;;3.00;99.90;;;;;;7332686;32;20630;-55
2023/03/07 11:16:22;;;;;;;5.32;4.50;;;3.10;99.90;;;;;;7327846;32;20272;-55
2023/03/07 11:20:47;;;;;;;6.87;6.12;;;3.00;99.90;;;;;;7331854;32;20238;-55
2023/03/07 11:25:09;;;;;;;6.25;5.25;;;3.00;99.90;;;;;;7325896;32;20477;-55
2023/03/07 11:29:13;;;;;;;6.18;5.18;;;3.10;99.90;;;;;;7333759;32;20524;-56
2023/03/07 11:33:24;;;;;;;7.00;5.72;;;3.00;99.90;;;;;;7342223;32;20129;-56
2023/03/07 11:38:04;;;;;;;9.45;6.87;;;3.10;99.90;;;;;;7336065;32;21982;-55
2023/03/07 11:42:21;;;;;;;12.37;8.25;;;3.00;99.90;;;;;;7322836;32;20724;-55
2023/03/07 11:46:42;;;;;;;;;;;2.80;99.90;;;;;;7338490;32;20221;-56
2023/03/07 11:50:52;;;;;;;15.65;10.70;;;2.70;99.90;;;;;;7337503;32;20094;-56
2023/03/07 11:55:14;;;;;;;15.40;10.98;;;2.60;99.90;;;;;;7341763;32;20111;-56
2023/03/07 11:59:32;;;;;;;11.02;8.70;;;2.60;99.90;;;;;;7334089;32;20141;-56
2023/03/07 12:03:58;;;;;;;12.55;8.95;;;2.70;99.90;;;;;;7332927;32;20134;-56
2023/03/07 12:08:29;;;;;;;14.63;10.20;;;2.60;99.90;;;;;;7338002;32;20230;-55
2023/03/07 12:12:46;;;;;;;13.05;10.18;;;2.60;99.90;;;;;;7335312;32;20120;-56
2023/03/07 12:17:21;;;;;;;9.98;8.35;;;2.70;99.90;;;;;;7338634;32;20169;-55
2023/03/07 12:21:35;;;;;;;11.68;7.87;;;2.80;99.90;;;;;;7336344;32;20129;-55
2023/03/07 12:25:39;;;;;;;12.00;9.30;;;3.00;99.90;;;;;;7332489;32;20175;-56
2023/03/07 12:29:46;;;;;;;13.07;10.40;;;3.00;99.90;;;;;;7339184;32;20296;-56
2023/03/07 12:33:53;;;;;;;9.95;8.32;;;3.00;99.90;;;;;;7328183;32;20320;-56
2023/03/07 12:38:08;;;;;;;9.55;8.40;;;3.00;99.90;;;;;;7337314;32;20608;-56
2023/03/07 12:42:40;;;;;;;10.73;8.07;;;3.10;99.90;;;;;;7340496;32;20387;-56
2023/03/07 12:47:03;;;;;;;8.35;6.70;;;3.10;99.90;;;;;;7333835;32;20528;-55
2023/03/07 12:51:31;;;;;;;9.90;8.25;;;3.10;99.90;;;;;;7336908;32;20142;-57
2023/03/07 12:55:43;;;;;;;9.80;7.45;;;3.10;99.90;;;;;;7324848;32;20126;-56
2023/03/07 12:59:44;;;;;;;8.10;6.70;;;3.10;99.90;;;;;;7335908;32;20130;-56
2023/03/07 13:04:14;;;;;;;10.85;8.23;;;3.20;99.90;;;;;;7330475;32;20103;-55
2023/03/07 13:08:22;;;;;;;9.43;6.62;;;3.20;99.90;;;;;;7331689;32;20131;-56
2023/03/07 13:12:28;;;;;;;10.95;8.63;;;3.20;99.90;;;;;;7330804;32;20109;-59
2023/03/07 13:16:33;;;;;;;11.73;9.20;;;3.00;99.90;;;;;;7336917;32;20174;-56
2023/03/07 13:20:37;;;;;;;14.40;10.23;;;2.90;99.90;;;;;;7332192;32;20235;-56
2023/03/07 13:24:41;;;;;;;12.82;10.15;;;2.80;99.90;;;;;;7339751;32;20189;-55
2023/03/07 13:28:45;;;;;;;12.18;9.70;;;2.90;99.90;;;;;;7333312;32;20103;-56
2023/03/07 13:32:50;;;;;;;15.38;10.57;;;2.90;99.90;;;;;;7337756;32;20130;-56
2023/03/07 13:36:52;;;;;;;12.85;10.07;;;3.00;99.90;;;;;;7332212;32;20253;-56
2023/03/07 13:40:57;;;;;;;12.07;9.02;;;3.10;99.90;;;;;;7332808;32;20194;-56
2023/03/07 13:44:59;;;;;;;10.32;7.82;;;3.00;99.90;;;;;;7334396;32;20724;-56
2023/03/07 13:49:01;;;;;;;10.25;7.80;;;3.20;99.90;;;;;;7338183;32;20202;-55
2023/03/07 13:53:28;;;;;;;6.93;6.07;;;3.20;99.90;;;;;;7329457;32;20180;-55
2023/03/07 13:57:35;;;;;;;6.93;5.53;;;3.30;99.90;;;;;;7330142;32;20240;-55
2023/03/07 14:01:38;;;;;;;;;;;3.40;99.90;;;;;;7334018;32;20614;-56
2023/03/07 14:05:40;;;;;;;7.57;5.87;;;3.30;99.90;;;;;;7331792;32;20404;-56
2023/03/07 14:09:49;;;;;;;9.38;7.00;;;3.10;99.90;;;;;;7325817;32;20264;-55
2023/03/07 14:14:13;;;;;;;8.77;6.82;;;3.00;99.90;;;;;;7330435;32;20155;-56
2023/03/07 14:18:41;;;;;;;10.13;6.85;;;3.10;99.90;;;;;;7333210;32;20246;-55
2023/03/07 14:23:11;;;;;;;7.95;5.68;;;3.10;99.90;;;;;;7328504;32;20130;-55
2023/03/07 14:27:15;;;;;;;6.97;5.15;;;3.20;99.90;;;;;;7338445;32;20182;-55
2023/03/07 14:31:25;;;;;;;8.40;5.55;;;3.20;99.90;;;;;;7334348;32;20663;-56
2023/03/07 14:35:38;;;;;;;6.43;4.22;;;3.20;99.90;;;;;;7328723;32;20119;-56
2023/03/07 14:40:08;;;;;;;5.57;4.45;;;3.10;99.90;;;;;;7331178;32;20177;-56
2023/03/07 14:44:34;;;;;;;4.25;3.60;;;3.10;99.90;;;;;;7325951;32;20187;-55
2023/03/07 14:49:25;;;;;;;4.70;3.80;;;3.10;99.90;;;;;;7329774;32;20164;-56
2023/03/07 14:53:29;;;;;;;5.03;3.70;;;3.00;99.90;;;;;;7327820;32;20137;-55
2023/03/07 14:57:38;;;;;;;5.05;4.00;;;3.00;99.90;;;;;;7328641;32;20137;-55
2023/03/07 15:01:41;;;;;;;5.70;4.70;;;3.00;99.90;;;;;;7332362;32;20131;-55
2023/03/07 15:05:56;;;;;;;5.70;4.28;;;3.00;99.90;;;;;;7343858;32;20107;-55
2023/03/07 15:09:57;;;;;;;6.43;3.83;;;2.90;99.90;;;;;;7336279;32;20633;-55
2023/03/07 15:14:20;;;;;;;4.70;3.20;;;2.70;99.90;;;;;;7339622;32;20161;-56
2023/03/07 15:18:32;;;;;;;8.32;3.28;;;2.60;99.90;;;;;;7344086;32;20215;-55
2023/03/07 15:22:39;;;;;;;4.05;3.00;;;2.70;99.90;;;;;;7336220;32;20157;-55
2023/03/07 15:26:45;;;;;;;;;;;2.70;99.90;;;;;;7336223;32;20277;-55
2023/03/07 15:30:49;;;;;;;6.03;4.30;;;2.60;99.90;;;;;;7331343;32;20619;-55
2023/03/07 15:35:13;;;;;;;5.12;3.95;;;2.50;99.90;;;;;;7338138;32;20256;-56
2023/03/07 15:39:33;;;;;;;5.85;4.50;;;2.40;99.90;;;;;;7339280;32;20590;-56
2023/03/07 15:43:34;;;;;;;6.10;4.50;;;2.30;99.90;;;;;;7337076;32;20143;-56
2023/03/07 15:47:36;;;;;;;7.72;5.18;;;2.20;99.90;;;;;;7339772;32;20622;-55
2023/03/07 15:51:38;;;;;;;7.20;5.35;;;2.20;99.90;;;;;;7329638;32;20163;-56
2023/03/07 15:55:41;;;;;;;6.90;5.25;;;2.10;99.90;;;;;;7338429;32;20603;-56
2023/03/07 15:59:59;;;;;;;6.22;5.07;;;2.10;99.90;;;;;;7335776;32;20134;-56
2023/03/07 16:04:04;;;;;;;8.52;5.65;;;2.10;99.90;;;;;;7343064;32;20107;-56
2023/03/07 16:08:12;;;;;;;6.82;5.22;;;2.10;99.90;;;;;;7339141;32;20309;-56
2023/03/07 16:12:17;;;;;;;8.43;5.55;;;2.10;99.90;;;;;;7334152;32;20186;-56
2023/03/07 16:16:21;;;;;;;7.00;5.40;;;2.00;99.90;;;;;;7341008;32;20163;-56
2023/03/07 16:20:27;;;;;;;11.12;6.68;;;1.90;99.90;;;;;;7339271;32;20115;-56
2023/03/07 16:24:29;;;;;;;7.30;5.55;;;1.90;99.90;;;;;;7329142;32;20147;-56
2023/03/07 16:28:32;;;;;;;9.10;6.03;;;1.90;99.90;;;;;;7337657;32;20183;-56
2023/03/07 16:32:33;;;;;;;8.93;6.37;;;1.90;99.90;;;;;;7336205;32;20124;-55
2023/03/07 16:36:36;;;;;;;7.85;5.57;;;1.90;99.90;;;;;;7334899;32;20203;-56
2023/03/07 16:40:42;;;;;;;8.15;7.10;;;1.90;99.90;;;;;;7339370;32;20179;-55
2023/03/07 16:44:44;;;;;;;10.32;7.80;;;2.00;99.90;;;;;;7334486;32;20107;-56
2023/03/07 16:48:46;;;;;;;9.23;7.22;;;2.00;99.90;;;;;;7331417;32;20171;-56
2023/03/07 16:52:48;;;;;;;9.93;8.38;;;2.00;99.90;;;;;;7342017;32;20767;-56
2023/03/07 16:56:52;;;;;;;8.73;6.82;;;2.00;99.90;;;;;;7330987;32;20126;-56
2023/03/07 17:00:54;;;;;;;10.20;6.87;;;2.10;99.90;;;;;;7333134;32;20123;-56
2023/03/07 17:04:56;;;;;;;12.85;9.05;;;2.10;99.90;;;;;;7336773;32;20122;-56
2023/03/07 17:08:58;;;;;;;11.32;8.27;;;2.10;99.90;;;;;;7331971;32;20119;-56
2023/03/07 17:13:01;;;;;;;13.65;9.52;;;2.20;99.90;;;;;;7336679;32;20096;-56
2023/03/07 17:17:03;;;;;;;15.68;10.50;;;2.10;99.90;;;;;;7336627;32;20528;-56
2023/03/07 17:21:05;;;;;;;14.87;10.40;;;2.10;99.90;;;;;;7330199;32;20099;-56
2023/03/07 17:25:07;;;;;;;14.85;10.32;;;2.00;99.90;;;;;;7338363;32;20202;-56
2023/03/07 17:29:14;;;;;;;14.80;9.80;;;2.10;99.90;;;;;;7327691;32;20491;-56
2023/03/07 17:33:15;;;;;;;;;;;2.00;99.90;;;;;;7336408;32;20202;-55
2023/03/07 17:37:17;;;;;;;15.60;9.80;;;1.80;99.90;;;;;;7334896;32;20018;-56
2023/03/07 17:41:19;;;;;;;12.18;9.13;;;1.80;99.90;;;;;;7339795;32;20139;-58
2023/03/07 17:45:21;;;;;;;12.77;9.18;;;1.80;99.90;;;;;;7331519;32;20195;-56
2023/03/07 17:49:25;;;;;;;15.90;11.35;;;1.60;99.90;;;;;;7339628;32;20108;-56
2023/03/07 17:53:27;;;;;;;19.30;12.88;;;1.60;99.90;;;;;;7335650;32;20150;-56
2023/03/07 17:57:28;;;;;;;16.27;10.85;;;1.60;99.90;;;;;;7338609;32;20521;-56
2023/03/07 18:01:31;;;;;;;15.93;11.63;;;1.60;99.90;;;;;;7336571;32;20228;-55
2023/03/07 18:05:33;;;;;;;14.43;9.98;;;1.40;99.90;;;;;;7332674;32;20135;-56
2023/03/07 18:09:35;;;;;;;15.65;10.90;;;1.50;99.90;;;;;;7338087;32;20135;-55
2023/03/07 18:13:38;;;;;;;16.08;10.98;;;1.50;99.90;;;;;;7327142;32;20127;-56
2023/03/07 18:17:39;;;;;;;15.40;10.73;;;1.40;99.90;;;;;;7338500;32;20682;-55
2023/03/07 18:21:50;;;;;;;13.62;9.30;;;1.30;99.90;;;;;;7337118;32;20221;-55
2023/03/07 18:25:59;;;;;;;17.77;12.05;;;1.20;99.90;;;;;;7336630;32;20122;-56
2023/03/07 18:30:02;;;;;;;19.20;12.43;;;1.20;99.90;;;;;;7334980;32;20221;-55
2023/03/07 18:34:04;;;;;;;17.60;11.80;;;1.30;99.90;;;;;;7339026;32;20258;-56
2023/03/07 18:38:06;;;;;;;17.15;12.02;;;1.20;99.90;;;;;;7328251;32;20240;-56
2023/03/07 18:42:07;;;;;;;18.55;12.00;;;1.20;99.90;;;;;;7333734;32;20778;-56
2023/03/07 18:46:12;;;;;;;16.17;11.10;;;1.20;99.90;;;;;;7334400;32;20134;-56
2023/03/07 18:50:13;;;;;;;14.02;10.32;;;1.20;99.90;;;;;;7330664;32;20549;-56
2023/03/07 18:54:15;;;;;;;16.75;11.00;;;1.20;99.90;;;;;;7339538;32;20183;-56
2023/03/07 18:58:18;;;;;;;14.75;10.25;;;1.20;99.90;;;;;;7337646;32;20198;-55
2023/03/07 19:02:19;;;;;;;16.92;11.55;;;1.20;99.90;;;;;;7332416;32;20125;-56
2023/03/07 19:06:23;;;;;;;18.55;11.32;;;1.30;99.90;;;;;;7331131;32;20201;-56
2023/03/07 19:10:24;;;;;;;16.08;10.57;;;1.20;99.90;;;;;;7334543;32;20111;-57
2023/03/07 19:14:26;;;;;;;14.77;9.98;;;1.20;99.90;;;;;;7334063;32;20130;-56
2023/03/07 19:18:28;;;;;;;13.90;9.18;;;1.20;99.90;;;;;;7329439;32;20171;-56
2023/03/07 19:22:30;;;;;;;16.08;10.32;;;1.30;99.90;;;;;;7338563;32;20103;-55
2023/03/07 19:26:31;;;;;;;13.27;8.45;;;1.20;99.90;;;;;;7331425;32;20183;-56
2023/03/07 19:30:35;;;;;;;14.75;8.88;;;1.20;99.90;;;;;;7331945;32;20124;-56
2023/03/07 19:34:37;;;;;;;12.60;8.35;;;1.20;99.90;;;;;;7331676;32;20137;-55
2023/03/07 19:38:39;;;;;;;14.05;9.25;;;1.30;99.90;;;;;;7334280;32;20671;-56
2023/03/07 19:42:41;;;;;;;13.88;9.70;;;1.20;99.90;;;;;;7337905;32;20636;-56
2023/03/07 19:46:45;;;;;;;24.80;13.93;;;1.30;99.90;;;;;;7337801;32;20214;-57
2023/03/07 19:50:47;;;;;;;19.05;12.15;;;1.30;99.90;;;;;;7337035;32;20104;-55
2023/03/07 19:54:52;;;;;;;20.17;11.93;;;1.30;99.90;;;;;;7326904;32;20123;-56
2023/03/07 19:58:54;;;;;;;22.85;11.77;;;1.40;99.90;;;;;;7339525;32;20202;-55
2023/03/07 20:02:56;;;;;;;20.02;11.88;;;1.40;99.90;;;;;;7335385;32;20326;-55
2023/03/07 20:06:58;;;;;;;19.37;11.70;;;1.30;99.90;;;;;;7334587;32;20133;-55
2023/03/07 20:11:15;;;;;;;18.83;11.02;;;1.20;99.90;;;;;;7340601;32;20253;-54
2023/03/07 20:15:16;;;;;;;19.90;11.45;;;1.30;99.90;;;;;;7332472;32;20115;-55
2023/03/07 20:19:19;;;;;;;15.75;10.30;;;1.30;99.90;;;;;;7335617;32;20137;-55
2023/03/07 20:23:21;;;;;;;14.93;9.55;;;1.30;99.90;;;;;;7332038;32;20104;-54
2023/03/07 20:27:23;;;;;;;15.80;8.80;;;1.30;99.90;;;;;;7339653;32;20210;-54
2023/03/07 20:31:26;;;;;;;18.92;8.75;;;1.30;99.90;;;;;;7341873;32;20199;-56
2023/03/07 20:35:27;;;;;;;15.18;8.00;;;1.30;99.90;;;;;;7339686;32;20226;-56
2023/03/07 20:39:29;;;;;;;11.15;7.30;;;1.30;99.90;;;;;;7337493;32;20526;-55
2023/03/07 20:43:31;;;;;;;11.43;7.15;;;1.30;99.90;;;;;;7343785;32;20126;-55
2023/03/07 20:47:36;;;;;;;18.17;10.23;;;1.20;99.90;;;;;;7337457;32;20203;-56
2023/03/07 20:51:39;;;;;;;16.58;9.90;;;1.20;99.90;;;;;;7335996;32;20143;-56
2023/03/07 20:55:41;;;;;;;15.13;9.85;;;1.10;99.90;;;;;;7338554;32;20131;-56
2023/03/07 20:59:42;;;;;;;16.08;9.43;;;1.10;99.90;;;;;;7336229;32;20207;-55
2023/03/07 21:03:46;;;;;;;17.37;8.68;;;1.20;99.90;;;;;;7328890;32;20144;-57
2023/03/07 21:07:48;;;;;;;12.70;7.47;;;1.20;99.90;;;;;;7335364;32;20576;-56
2023/03/07 21:11:50;;;;;;;12.30;7.90;;;1.30;99.90;;;;;;7341568;32;20181;-58
2023/03/07 21:15:57;;;;;;;12.07;7.57;;;1.20;99.90;;;;;;7334430;32;20170;-56
2023/03/07 21:19:58;;;;;;;;;;;1.20;99.90;;;;;;7333148;32;20237;-56